Flight Track Log - Related Links

Times and Time Zones

All times are in EDT time to prevent confusion due to time zone crossing. See the N194A flight status page for this flight to view local times or setup timezone preferences in your user account.

Time Position Orientation Groundspeed Altitude Reporting Facility
EDT Latitude Longitude Course Direction KTS MPH feet Rate Location/Type
Tue 05:56:35 PM 40.0228 -88.4050 302° West 117 135 4,200  Level Chicago Center
Tue 05:57:37 PM 40.0342 -88.4456 290° West 121 139 4,500 145 Climbing Chicago Center
Tue 05:58:39 PM 40.0525 -88.4975 295° West 146 168 4,500  Level Chicago Center
Tue 05:59:00 PM 40.1424 -88.4941 302° West  Level Estimated
Tue 05:59:41 PM 40.0758 -88.5483 301° West 161 185 4,500  Level Chicago Center
Tue 06:00:00 PM 40.1630 -88.5375 302° West  Level Estimated
Tue 06:00:43 PM 40.0961 -88.6025 296° West 165 190 4,600  Level Chicago Center
Tue 06:01:00 PM 40.1837 -88.5809 302° West  Level Estimated
Tue 06:01:46 PM 40.1308 -88.6586 309° West 165 190 4,600  Level Chicago Center
Tue 06:02:47 PM 40.1553 -88.7081 303° West 163 188 4,600 -48 Level Chicago Center
Tue 06:03:50 PM 40.1781 -88.7592 300° West 162 186 4,500 -48 Descending Chicago Center
Tue 06:04:52 PM 40.2036 -88.8092 304° West 164 189 4,500  Level Chicago Center
Tue 06:05:54 PM 40.2244 -88.8628 297° West 164 189 4,500 48 Level Chicago Center
Tue 06:06:56 PM 40.2475 -88.9119 302° West 162 186 4,600 339 Climbing Chicago Center
Tue 06:07:58 PM 40.2817 -88.9606 313° West 153 176 5,200 629 Climbing Chicago Center
Tue 06:09:00 PM 40.3053 -88.9997 308° West 142 163 5,900 677 Climbing Chicago Center
Tue 06:10:02 PM 40.3250 -89.0414 302° West 137 158 6,600 339 Climbing Chicago Center
Tue 06:11:04 PM 40.3469 -89.0861 303° West 142 163 6,600  Level Chicago Center
Tue 06:12:06 PM 40.3744 -89.1322 308° West 156 180 6,600 -48 Level Chicago Center
Tue 06:13:08 PM 40.4042 -89.1808 309° West 166 191 6,500  Descending Chicago Center
Tue 06:14:11 PM 40.4286 -89.2419 298° West 160 184 6,600 96 Climbing Chicago Center
Tue 06:15:13 PM 40.4550 -89.2886 307° West 160 184 6,700  Climbing Chicago Center
Tue 06:16:15 PM 40.4811 -89.3375 305° West 162 186 6,600 97 Descending Chicago Center
Tue 06:17:17 PM 40.5069 -89.3839 306° West 160 184 6,900 435 Climbing Chicago Center
Tue 06:18:19 PM 40.5289 -89.4231 306° West 146 168 7,500 726 Climbing Chicago Center
Tue 06:19:21 PM 40.5503 -89.4600 307° West 135 155 8,400 532 Climbing Chicago Center
Tue 06:20:23 PM 40.5769 -89.5078 306° West 133 153 8,600 48 Climbing Chicago Center
Tue 06:21:26 PM 40.6017 -89.5567 304° West 146 168 8,500  Descending Chicago Center
Tue 06:22:27 PM 40.6256 -89.6103 300° West 160 184 8,600 49 Climbing Chicago Center
Tue 06:23:29 PM 40.6503 -89.6619 302° West 165 190 8,600  Level Chicago Center
Tue 06:24:31 PM 40.6761 -89.7097 305° West 164 189 8,600  Level Chicago Center
Tue 06:25:33 PM 40.7100 -89.7669 308° West 165 190 8,600  Level Chicago Center
Tue 06:26:35 PM 40.7375 -89.8128 308° West 166 191 8,600 96 Level Chicago Center
Tue 06:27:38 PM 40.7628 -89.8592 306° West 162 186 8,800  Climbing Chicago Center
Tue 06:28:40 PM 40.7847 -89.9067 301° West 155 178 8,600 -97 Descending Chicago Center
Tue 06:29:42 PM 40.8158 -89.9639 306° West 159 183 8,600 48 Level Chicago Center
Tue 06:30:44 PM 40.8439 -90.0089 310° West 159 183 8,700 48 Climbing Chicago Center
Tue 06:31:46 PM 40.8706 -90.0542 308° West 157 181 8,700 -48 Level Chicago Center
Tue 06:32:48 PM 40.8978 -90.0981 309° West 157 181 8,600 -48 Descending Chicago Center
Tue 06:33:50 PM 40.9272 -90.1450 310° West 162 186 8,600 48 Level Chicago Center
Tue 06:34:52 PM 40.9525 -90.1889 307° West 153 176 8,700 97 Climbing Chicago Center
Tue 06:35:54 PM 40.9856 -90.2431 309° West 157 181 8,800 290 Climbing Chicago Center
Tue 06:36:56 PM 41.0119 -90.2878 308° West 155 178 9,300 484 Climbing Chicago Center
Tue 06:37:58 PM 41.0347 -90.3239 310° West 134 154 9,800 484 Climbing Chicago Center
Tue 06:39:00 PM 41.0567 -90.3631 307° West 133 153 10,300 288 Climbing Chicago Center
Tue 06:40:03 PM 41.0808 -90.4058 307° West 144 166 10,400 48 Climbing Chicago Center
Tue 06:41:05 PM 41.1056 -90.4556 303° West 161 185 10,400 48 Level Chicago Center
Tue 06:42:07 PM 41.1381 -90.5133 307° West 163 188 10,500  Climbing Chicago Center
Tue 06:43:09 PM 41.1608 -90.5636 301° West 159 183 10,400 48 Descending Chicago Center
Tue 06:44:11 PM 41.1822 -90.6156 299° West 160 184 10,600 48 Climbing Chicago Center
Tue 06:45:13 PM 41.2008 -90.6694 295° West 160 184 10,500  Descending Chicago Center
Tue 06:46:15 PM 41.2156 -90.7275 289° West 165 190 10,600 48 Climbing Chicago Center
Tue 06:47:17 PM 41.2364 -90.7781 299° West 158 182 10,600 -48 Level Chicago Center
Tue 06:48:19 PM 41.2603 -90.8436 296° West 162 186 10,500 -145 Descending Chicago Center
Tue 06:49:21 PM 41.2825 -90.8992 298° West 169 194 10,300 -48 Descending Chicago Center
Tue 06:50:23 PM 41.3050 -90.9519 300° West 165 190 10,400 97 Climbing Chicago Center
Tue 06:51:25 PM 41.3275 -91.0022 301° West 159 183 10,500 -192 Climbing Chicago Center
Tue 06:52:28 PM 41.3506 -91.0561 300° West 166 191 10,000 -336 Descending Chicago Center
Tue 06:53:30 PM 41.3769 -91.1114 302° West 175 201 9,800 -339 Descending Chicago Center
Tue 06:54:32 PM 41.4044 -91.1817 298° West 177 204 9,300 -484 Descending Chicago Center
Tue 06:55:34 PM 41.4275 -91.2386 298° West 176 203 8,800 -387 Descending Chicago Center
Tue 06:56:36 PM 41.4531 -91.2964 301° West 180 207 8,500 -97 Descending Chicago Center
Tue 06:57:38 PM 41.4797 -91.3497 304° West 168 193 8,600 -194 Climbing Chicago Center
Tue 06:58:40 PM 41.5028 -91.4014 301° West 164 189 8,100 -629 Descending Chicago Center
Tue 06:59:42 PM 41.5292 -91.4644 299° West 190 219 7,300 -774 Descending Chicago Center
Tue 07:00:44 PM 41.5603 -91.5361 300° West 188 216 6,500 -484 Descending Chicago Center
Tue 07:01:46 PM 41.5803 -91.5967 294° West 180 207 6,300 -48 Descending Chicago Center
Tue 07:02:48 PM 41.5989 -91.6536 294° West 174 200 6,400 97 Climbing Chicago Center
Tue 07:03:50 PM 41.6203 -91.7044 299° West 165 190 6,500  Climbing Chicago Center
Tue 07:04:53 PM 41.6406 -91.7550 298° West 160 184 6,400 -48 Descending Chicago Center
Tue 07:05:55 PM 41.6653 -91.8217 296° West 166 191 6,400  Level Chicago Center
Tue 07:06:57 PM 41.6911 -91.8722 304° West 167 192 6,400  Level Chicago Center
Tue 07:07:59 PM 41.7161 -91.9208 305° West 162 186 6,400  Level Chicago Center
Tue 07:09:01 PM 41.7411 -91.9703 304° West 163 188 6,400 48 Level Chicago Center
Tue 07:10:03 PM 41.7600 -92.0256 295° West 163 188 6,500 97 Climbing Chicago Center
Tue 07:11:05 PM 41.7858 -92.0883 299° West 162 186 6,600  Climbing Chicago Center
Tue 07:12:07 PM 41.8006 -92.1450 289° West 163 188 6,500  Descending Chicago Center
Tue 07:13:09 PM 41.8175 -92.1994 293° West 161 185 6,600 48 Climbing Chicago Center
Tue 07:14:11 PM 41.8378 -92.2544 296° West 163 188 6,600  Level Chicago Center
Tue 07:15:13 PM 41.8608 -92.3061 301° West 164 189 6,600 -48 Level Chicago Center
Tue 07:16:16 PM 41.8919 -92.3689 304° West 167 192 6,500  Descending Chicago Center
Tue 07:17:18 PM 41.9175 -92.4219 303° West 171 197 6,600  Climbing Chicago Center
Tue 07:18:20 PM 41.9425 -92.4750 302° West 170 196 6,500 -48 Descending Chicago Center
Tue 07:19:22 PM 41.9619 -92.5311 295° West 168 193 6,500  Level Chicago Center
Tue 07:20:24 PM 41.9822 -92.5878 296° West 169 194 6,500  Level Chicago Center
Tue 07:21:25 PM 42.0100 -92.6614 297° West 172 198 6,500  Level Minneapolis Center
Tue 07:22:27 PM 42.0300 -92.7172 296° West 171 197 6,500  Level Minneapolis Center
Tue 07:23:29 PM 42.0497 -92.7739 295° West 170 196 6,500  Level Minneapolis Center
Tue 07:24:31 PM 42.0717 -92.8392 294° West 169 194 6,500  Level Minneapolis Center
Tue 07:25:33 PM 42.0911 -92.8964 295° West 169 194 6,500  Level Minneapolis Center
Tue 07:26:35 PM 42.1142 -92.9567 297° West 169 194 6,500  Level Minneapolis Center
Tue 07:27:38 PM 42.1353 -93.0114 297° West 167 192 6,500 48 Level Minneapolis Center
Tue 07:28:40 PM 42.1586 -93.0703 298° West 166 191 6,600  Climbing Minneapolis Center
Tue 07:29:42 PM 42.1814 -93.1264 299° West 169 194 6,500 -97 Descending Minneapolis Center
Tue 07:30:44 PM 42.2050 -93.1811 300° West 170 196 6,400 -48 Descending Minneapolis Center
Tue 07:31:46 PM 42.2297 -93.2419 299° West 171 197 6,400 44 Level Minneapolis Center
Tue 07:33:00 PM 42.2539 -93.2953 301° West 169 194 6,500 88 Climbing Minneapolis Center
Tue 07:34:02 PM 42.2872 -93.3619 304° West 166 191 6,600 48 Climbing Minneapolis Center
Tue 07:35:04 PM 42.3122 -93.4142 303° West 167 192 6,600  Level Minneapolis Center
Tue 07:36:06 PM 42.3389 -93.4681 304° West 171 197 6,600  Level Minneapolis Center
Tue 07:37:08 PM 42.3703 -93.5261 306° West 178 205 6,600 -48 Level Minneapolis Center
Tue 07:38:10 PM 42.3981 -93.5756 307° West 174 200 6,500 -97 Descending Minneapolis Center
Tue 07:39:12 PM 42.4281 -93.6389 303° West 191 220 6,400  Descending Minneapolis Center
Tue 07:40:14 PM 42.4539 -93.6908 304° West 167 192 6,500 48 Climbing Minneapolis Center
Tue 07:41:16 PM 42.4789 -93.7358 307° West 170 196 6,500 48 Level Minneapolis Center
Tue 07:42:18 PM 42.5114 -93.8006 304° West 173 199 6,600 48 Climbing Minneapolis Center
Tue 07:43:20 PM 42.5347 -93.8575 299° West 175 201 6,600  Level Minneapolis Center
Tue 07:44:22 PM 42.5575 -93.9139 299° West 174 200 6,600 -48 Level Minneapolis Center
Tue 07:45:24 PM 42.5833 -93.9703 302° West 175 201 6,500 -97 Descending Minneapolis Center
Tue 07:46:26 PM 42.6058 -94.0264 299° West 175 201 6,400 Descending Minneapolis Center
Tue 07:48:00 PM 42.6356 -94.1119 295° West  Level FlightAware Approximate
Tue 07:55:00 PM 42.7679 -94.4951 295° West  Level FlightAware Approximate
Tue 07:56:00 PM 42.7867 -94.5499 295° West  Level FlightAware Approximate
Tue 07:57:00 PM 42.8054 -94.6049 295° West  Level FlightAware Approximate
Tue 07:58:00 PM 42.8242 -94.6598 295° West  Level FlightAware Approximate
Tue 07:59:00 PM 42.8429 -94.7148 295° West  Level FlightAware Approximate
Tue 08:00:00 PM 42.8615 -94.7698 295° West  Level FlightAware Approximate
Tue 08:01:00 PM 42.8802 -94.8248 295° West  Level FlightAware Approximate
Tue 08:01:55 PM 42.9417 -94.9128 298° West 228 262 6,600  Level Minneapolis Center
Tue 08:02:00 PM 42.8988 -94.8799 295° West  Level FlightAware Approximate
Tue 08:02:56 PM 42.9508 -94.9783 281° West 210 242 6,600  Level Minneapolis Center
Tue 08:03:00 PM 42.9198 -94.9347 298° West  Level FlightAware Approximate
Tue 08:03:58 PM 42.9878 -95.0317 313° West 167 192 6,600  Level Minneapolis Center
Tue 08:04:00 PM 42.9405 -94.9884 298° West  Level FlightAware Approximate
Tue 08:05:00 PM 42.9611 -95.0422 298° West  Level FlightAware Approximate
Tue 08:05:00 PM 43.0125 -95.0939 299° West 168 193 6,600  Level Minneapolis Center
Tue 08:06:00 PM 42.9817 -95.0960 298° West  Level FlightAware Approximate
Tue 08:06:02 PM 43.0222 -95.1586 282° West 169 194 6,600  Level Minneapolis Center
Tue 08:07:00 PM 43.0023 -95.1498 298° West  Level FlightAware Approximate
Tue 08:07:04 PM 43.0369 -95.2194 288° West 169 194 6,600  Level Minneapolis Center
Tue 08:08:06 PM 43.0522 -95.2833 288° West 172 198 6,500 -97 Descending Minneapolis Center
Tue 08:09:08 PM 43.0683 -95.3461 289° West 174 200 6,400 -44 Descending Minneapolis Center
Tue 08:10:22 PM 43.0889 -95.4050 296° West 174 200 6,400 -265 Level Minneapolis Center
Tue 08:11:24 PM 43.1114 -95.4797 292° West 175 201 5,800 -629 Descending Minneapolis Center
Tue 08:12:26 PM 43.1400 -95.5572 297° West 182 209 5,100 -581 Descending Minneapolis Center
Tue 08:13:28 PM 43.1783 -95.6078 316° Northwest 188 216 4,600 -290 Descending Minneapolis Center
Tue 08:14:30 PM 43.2192 -95.6494 323° Northwest 188 216 4,500  Descending Minneapolis Center
Tue 08:15:32 PM 43.2572 -95.6908 322° Northwest 183 211 4,600 48 Climbing Minneapolis Center
Tue 08:16:34 PM 43.2939 -95.7347 319° Northwest 178 205 4,600 -49 Level Minneapolis Center
Tue 08:17:35 PM 43.3294 -95.7783 318° Northwest 174 200 4,500 49 Descending Minneapolis Center
Tue 08:18:37 PM 43.3769 -95.8256 324° Northwest 175 201 4,700 48 Climbing Minneapolis Center
Tue 08:19:39 PM 43.4183 -95.8628 327° Northwest 176 203 4,600 -97 Descending Minneapolis Center
Tue 08:20:41 PM 43.4569 -95.9039 322° Northwest 176 203 4,500 -48 Descending Minneapolis Center
Tue 08:21:43 PM 43.4822 -95.9567 303° West 174 200 4,500  Level Minneapolis Center
Tue 08:22:45 PM 43.4983 -96.0175 290° West 173 199 4,500 145 Level Minneapolis Center
Tue 08:23:47 PM 43.5117 -96.0792 287° West 169 194 4,800  Climbing Minneapolis Center
Tue 08:24:50 PM 43.5136 -96.1572 272° West 171 197 4,500 -144 Descending Minneapolis Center
Tue 08:25:52 PM 43.5056 -96.2153 259° West 163 188 4,500 -48 Level Minneapolis Center
Tue 08:26:54 PM 43.4972 -96.2769 259° West 161 185 4,400  Descending Minneapolis Center
Tue 08:27:56 PM 43.4914 -96.3369 262° West 160 184 4,500  Climbing Minneapolis Center
Tue 08:28:58 PM 43.4875 -96.3964 265° West 158 182 4,400 -48 Descending Minneapolis Center
Tue 08:30:00 PM 43.4881 -96.4586 271° West 159 183 4,400 48 Level Minneapolis Center
Tue 08:31:02 PM 43.4908 -96.5333 273° West 161 185 4,500 -194 Climbing Minneapolis Center
Tue 08:32:04 PM 43.4919 -96.5958 271° West 162 186 4,000 -484 Descending Minneapolis Center
Tue 08:34:00 PM 43.5443 -96.6921 307° West  Level FlightAware Approximate

Login

Don't have an account? Register now (free) for customized features, flight alerts, and more!